RAIN

Not for real navigation. The accuracy of this data is not assured See disclaimer for more information



ICAO NAME COUNTRY WIND Kt GUST Kt VIS m TEMP/DEW C BARO METAR
KOQU N. Kingston / Quonset RI United States 8 0 400 11/10 29.74 KOQU 252350Z 24008KT 0.25SM -RAFG VV002 11/10 A2974
KAPY 21 34 800 20/18 30.02 KAPY 252355Z AUTO 34021G34KT 0.5SM +TSRA 20/18 A3002 RMK AO2 LTG NOOP ALQS P0079 T02030182
KISP ISLIP LONG ISLAND MAC ART NY United States 6 0 800 13/13 29.68 KISP 252356Z 15006KT 0.5SM R06/6000VP6000FT -DZ BR OVC002 13/13 A2968 RMK AO2 SFC VIS 1 LTG NOOP E R
GMFF Fes-Sais Morocco 3 0 1100 14/14 30.06 GMFF 252330Z 01003KT 320V050 1100 0900SE R27/0900V1300D R09/0900V1300D RA SCT003 BKN026 14/14 Q1018
KBID Block Island, Block Island Sta RI United States 16 21 1200 11/11 29.73 KBID 252356Z AUTO 15016G21KT 0.75SM BR OVC003 11/11 A2973 RMK AO2 RAE37 SLP071 P0000 60020 T01110111

Show more